Time;durP1;ratioP1;P1;durP2;ratioP2;P2;SDS_P1;SDS_P2;PMS_P1;PMS_P2;Temp;Humidity;BMP_temperature;BMP_pressure;BME280_temperature;BME280_humidity;BME280_pressure;Samples;Min_cycle;Max_cycle;Signal;HPM_P1;HPM_P2
2024/04/01 00:01:35;;;;;;;11.23;1.95;;;;;;;11.90;71.60;96432.38;5025008;27;103195;-82
2024/04/01 00:04:01;;;;;;;8.63;1.92;;;;;;;11.94;71.89;96439.63;4998482;27;103436;-78
2024/04/01 00:06:27;;;;;;;8.60;1.70;;;;;;;12.01;71.50;96425.47;5018155;27;103819;-81
2024/04/01 00:08:52;;;;;;;12.05;1.65;;;;;;;12.12;70.47;96429.97;5018793;27;103137;-75
2024/04/01 00:11:18;;;;;;;9.63;1.60;;;;;;;12.19;70.61;96432.50;5011140;27;106164;-77
2024/04/01 00:13:46;;;;;;;7.13;1.55;;;;;;;12.10;70.90;96422.25;5022103;27;103853;-80
2024/04/01 00:16:14;;;;;;;9.88;1.60;;;;;;;12.09;70.78;96422.47;5027791;27;103765;-81
2024/04/01 00:18:40;;;;;;;14.13;2.92;;;;;;;11.86;72.12;96431.25;5013158;27;102945;-78
2024/04/01 00:21:06;;;;;;;11.15;1.70;;;;;;;11.98;71.60;96424.09;5022652;27;103213;-80
2024/04/01 00:23:32;;;;;;;9.45;1.38;;;;;;;11.97;71.87;96427.00;5005751;27;103251;-78
2024/04/01 00:25:58;;;;;;;10.00;1.30;;;;;;;11.99;71.76;96431.03;5026755;27;102991;-80
2024/04/01 00:28:26;;;;;;;9.38;2.03;;;;;;;11.92;72.38;96419.69;5010798;27;102733;-80
2024/04/01 00:30:54;;;;;;;10.20;1.92;;;;;;;11.93;71.85;96414.16;5028522;27;103295;-79
2024/04/01 00:33:20;;;;;;;12.13;1.88;;;;;;;11.99;71.65;96409.00;5005762;27;103517;-79
2024/04/01 00:35:46;;;;;;;18.15;1.80;;;;;;;12.08;71.38;96410.25;5020249;27;102824;-81
2024/04/01 00:38:12;;;;;;;7.90;1.60;;;;;;;11.94;71.56;96407.00;5022384;27;103293;-80
2024/04/01 00:40:40;;;;;;;6.90;1.42;;;;;;;12.03;71.25;96391.56;5012242;27;107994;-81
2024/04/01 00:43:10;;;;;;;5.57;1.45;;;;;;;11.99;71.54;96388.56;5011214;27;103474;-81
2024/04/01 00:45:40;;;;;;;11.35;1.67;;;;;;;11.89;72.32;96383.81;4987367;27;103412;-82
2024/04/01 00:48:09;;;;;;;6.82;1.75;;;;;;;11.93;71.67;96377.03;5025074;27;102666;-80
2024/04/01 00:50:40;;;;;;;7.28;1.38;;;;;;;11.96;71.22;96369.66;5028999;27;103531;-81
2024/04/01 00:53:10;;;;;;;11.48;1.75;;;;;;;11.95;71.55;96360.91;5012300;27;103365;-76
2024/04/01 00:55:41;;;;;;;10.45;1.98;;;;;;;11.91;71.86;96363.19;5029596;27;102780;-77
2024/04/01 00:58:10;;;;;;;7.38;1.50;;;;;;;11.83;72.61;96358.25;5028131;27;102744;-81
2024/04/01 01:00:36;;;;;;;9.55;1.80;;;;;;;11.53;73.48;96332.69;5025025;27;105242;-80
2024/04/01 01:03:03;;;;;;;6.80;1.40;;;;;;;11.43;74.00;96316.56;5023847;27;103208;-81
2024/04/01 01:05:30;;;;;;;12.07;1.52;;;;;;;11.53;73.76;96305.38;5016580;27;103064;-79
2024/04/01 01:07:58;;;;;;;7.88;1.23;;;;;;;11.69;72.64;96299.34;4995175;28;102916;-79
2024/04/01 01:10:24;;;;;;;6.53;1.58;;;;;;;11.80;72.01;96312.81;5037910;27;103232;-80
2024/04/01 01:12:50;;;;;;;2.22;1.13;;;;;;;11.83;72.07;96299.09;4985806;27;103166;-80
2024/04/01 01:15:16;;;;;;;8.80;1.27;;;;;;;11.86;71.45;96294.13;4986882;27;104581;-83
2024/04/01 01:17:42;;;;;;;6.32;1.40;;;;;;;11.90;71.62;96297.91;5025581;27;103059;-81
2024/04/01 01:20:11;;;;;;;10.15;1.50;;;;;;;11.58;73.36;96271.00;5016961;27;103781;-79
2024/04/01 01:22:43;;;;;;;11.82;1.95;;;;;;;11.22;74.81;96254.38;5011023;27;108522;-81
2024/04/01 01:25:11;;;;;;;6.72;1.52;;;;;;;10.83;76.43;96236.31;5006591;27;102861;-81
2024/04/01 01:27:39;;;;;;;5.75;1.50;;;;;;;10.67;77.18;96237.00;5022314;27;103274;-81
2024/04/01 01:30:15;;;;;;;10.73;1.77;;;;;;;10.97;75.81;96250.13;5022200;27;104843;-78
2024/04/01 01:32:49;;;;;;;8.40;1.48;;;;;;;11.05;75.71;96262.22;5025267;27;106700;-80
2024/04/01 01:35:20;;;;;;;8.43;2.00;;;;;;;10.87;76.73;96265.78;5018298;27;104391;-77
2024/04/01 01:37:50;;;;;;;7.68;1.50;;;;;;;11.17;75.21;96256.91;5027370;27;103122;-80
2024/04/01 01:40:19;;;;;;;7.65;1.50;;;;;;;10.93;75.50;96243.69;5021008;27;104178;-82
2024/04/01 01:42:47;;;;;;;10.27;1.52;;;;;;;10.99;75.60;96248.06;5016069;27;104121;-81
2024/04/01 01:45:13;;;;;;;7.93;1.40;;;;;;;11.14;75.27;96249.44;5023450;27;103036;-77
2024/04/01 01:47:41;;;;;;;8.43;1.55;;;;;;;10.89;76.03;96239.88;5009372;27;102994;-81
2024/04/01 01:50:07;;;;;;;11.45;2.10;;;;;;;10.74;77.04;96261.50;5010224;27;103155;-80
2024/04/01 01:52:36;;;;;;;7.20;1.38;;;;;;;10.90;76.24;96255.53;5003234;27;103346;-77
2024/04/01 01:55:02;;;;;;;7.50;1.27;;;;;;;11.17;74.82;96262.22;5006164;27;103065;-75
2024/04/01 01:57:29;;;;;;;8.05;1.50;;;;;;;11.05;75.24;96252.41;5007676;27;102741;-78
2024/04/01 01:59:55;;;;;;;4.82;1.00;;;;;;;11.18;74.99;96221.44;5025258;27;103291;-81
2024/04/01 02:02:21;;;;;;;7.70;1.63;;;;;;;11.29;74.12;96225.91;5022933;27;103223;-79
2024/04/01 02:04:49;;;;;;;9.02;1.30;;;;;;;11.25;74.00;96227.41;5022543;27;103909;-80
2024/04/01 02:07:17;;;;;;;5.68;1.60;;;;;;;11.15;74.57;96224.53;5023608;27;103414;-81
2024/04/01 02:09:45;;;;;;;5.80;1.10;;;;;;;11.25;74.01;96235.34;5010642;27;103528;-80
2024/04/01 02:12:11;;;;;;;8.50;1.42;;;;;;;11.13;74.73;96255.78;5004620;28;102785;-82
2024/04/01 02:14:38;;;;;;;9.88;1.63;;;;;;;11.09;75.19;96253.56;5005625;27;102643;-77
2024/04/01 02:17:07;;;;;;;6.93;1.98;;;;;;;10.84;76.04;96266.25;5027578;27;102653;-78
2024/04/01 02:19:34;;;;;;;5.25;1.58;;;;;;;11.02;75.58;96231.69;5022234;27;103098;-80
2024/04/01 02:22:00;;;;;;;4.50;1.00;;;;;;;11.01;75.03;96202.81;5022867;27;104923;-78
2024/04/01 02:24:26;;;;;;;8.70;1.40;;;;;;;11.11;74.60;96165.94;5023009;27;103077;-80
2024/04/01 02:26:53;;;;;;;6.32;1.42;;;;;;;10.85;75.17;96175.19;5005758;27;103450;-79
2024/04/01 02:29:19;;;;;;;7.97;1.40;;;;;;;11.02;74.85;96162.03;5006455;27;103634;-81
2024/04/01 02:31:44;;;;;;;7.53;1.20;;;;;;;11.05;74.13;96172.16;5009621;27;103290;-80
2024/04/01 02:34:10;;;;;;;5.43;1.10;;;;;;;11.03;74.41;96167.09;5006269;27;103053;-80
2024/04/01 02:36:36;;;;;;;5.28;1.00;;;;;;;11.08;73.89;96172.50;5017171;27;102990;-81
2024/04/01 02:39:16;;;;;;;9.95;2.17;;;;;;;10.78;75.03;96223.78;5026223;27;103909;-78
2024/04/01 02:41:45;;;;;;;6.25;1.77;;;;;;;10.82;75.74;96231.25;5024974;27;106255;-82
2024/04/01 02:44:15;;;;;;;5.53;0.88;;;;;;;10.90;75.27;96233.53;5007793;27;102991;-80
2024/04/01 02:46:41;;;;;;;5.00;1.00;;;;;;;10.95;74.59;96215.09;5020260;27;104562;-77
2024/04/01 02:49:09;;;;;;;6.60;1.27;;;;;;;10.92;74.70;96210.28;5022420;27;103309;-82
2024/04/01 02:51:34;;;;;;;6.30;1.25;;;;;;;10.98;74.37;96188.19;5026349;27;103160;-82
2024/04/01 02:54:03;;;;;;;5.15;1.15;;;;;;;10.95;74.06;96181.50;4993647;27;102764;-80
2024/04/01 02:56:29;;;;;;;8.32;1.42;;;;;;;10.93;74.02;96172.19;5024559;27;103448;-81
2024/04/01 02:58:55;;;;;;;4.90;1.30;;;;;;;10.97;74.03;96159.28;5022084;27;103211;-79
2024/04/01 03:01:21;;;;;;;2.47;1.00;;;;;;;11.04;73.86;96176.63;5022769;27;103234;-78
2024/04/01 03:03:47;;;;;;;7.72;1.63;;;;;;;10.76;75.30;96180.03;5010139;27;102742;-80
2024/04/01 03:06:14;;;;;;;4.50;1.30;;;;;;;10.85;74.82;96183.13;5021522;27;103169;-74
2024/04/01 03:08:39;;;;;;;11.65;1.55;;;;;;;10.93;74.28;96180.91;5020848;27;103851;-73
2024/04/01 03:11:07;;;;;;;4.50;1.00;;;;;;;10.90;74.66;96172.63;5007723;27;103091;-81
2024/04/01 03:13:33;;;;;;;5.40;1.20;;;;;;;10.95;74.18;96162.16;5025403;27;103779;-79
2024/04/01 03:16:01;;;;;;;2.83;1.10;;;;;;;10.85;74.89;96180.50;5007355;27;103948;-79
2024/04/01 03:18:26;;;;;;;5.85;1.20;;;;;;;10.80;75.10;96170.56;5020450;27;103187;-81
2024/04/01 03:20:52;;;;;;;6.22;1.17;;;;;;;10.50;76.43;96160.13;5019008;27;103274;-79
2024/04/01 03:23:18;;;;;;;4.05;1.30;;;;;;;10.55;76.58;96162.88;5020009;27;102920;-80
2024/04/01 03:25:51;;;;;;;6.28;1.17;;;;;;;10.74;75.50;96159.09;5018533;27;103012;-74
2024/04/01 03:28:21;;;;;;;2.15;0.70;;;;;;;10.71;75.10;96151.59;5021753;27;103333;-79
2024/04/01 03:30:47;;;;;;;6.57;1.10;;;;;;;10.76;74.97;96164.13;5023338;27;103333;-80
2024/04/01 03:33:13;;;;;;;7.15;1.50;;;;;;;10.67;75.88;96165.53;5007420;27;103235;-76
2024/04/01 03:35:39;;;;;;;4.35;1.40;;;;;;;10.58;75.41;96173.00;5028730;27;103058;-72
2024/04/01 03:38:06;;;;;;;4.60;1.30;;;;;;;10.67;75.60;96192.00;5005481;27;103633;-74
2024/04/01 03:40:32;;;;;;;7.10;1.40;;;;;;;10.57;75.97;96192.56;5021236;27;103163;-76
2024/04/01 03:43:00;;;;;;;7.60;1.55;;;;;;;10.73;75.39;96186.59;5022279;27;104009;-77
2024/04/01 03:45:26;;;;;;;5.43;1.13;;;;;;;10.73;75.03;96197.19;5022029;27;102868;-82
2024/04/01 03:47:54;;;;;;;5.22;1.13;;;;;;;10.78;75.07;96199.94;5023058;27;103250;-78
2024/04/01 03:50:19;;;;;;;10.23;2.00;;;;;;;10.48;76.05;96200.06;5015808;27;102726;-80
2024/04/01 03:52:45;;;;;;;5.38;1.20;;;;;;;10.66;75.29;96190.38;5024901;27;103404;-80
2024/04/01 03:55:11;;;;;;;6.78;1.20;;;;;;;10.71;75.13;96193.94;5024470;27;103497;-76
2024/04/01 03:57:42;;;;;;;10.95;1.58;;;;;;;10.63;75.50;96191.66;5020156;27;103380;-78
2024/04/01 04:00:08;;;;;;;9.25;1.60;;;;;;;10.63;75.63;96196.94;5024735;27;103027;-77
2024/04/01 04:02:34;;;;;;;8.45;1.52;;;;;;;10.65;75.51;96194.88;5024347;27;103679;-80
2024/04/01 04:05:00;;;;;;;5.55;1.42;;;;;;;10.57;75.60;96190.72;5015856;27;102960;-77
2024/04/01 04:07:25;;;;;;;5.07;1.40;;;;;;;10.62;75.54;96168.84;5021992;27;103097;-81
2024/04/01 04:09:53;;;;;;;5.43;1.35;;;;;;;10.57;75.53;96171.38;5024738;27;103214;-78
2024/04/01 04:12:19;;;;;;;7.57;1.90;;;;;;;10.61;75.12;96191.88;4998822;27;102617;-79
2024/04/01 04:14:45;;;;;;;3.45;1.23;;;;;;;10.53;75.69;96200.16;5004596;27;102686;-78
2024/04/01 04:17:10;;;;;;;7.70;1.42;;;;;;;10.60;75.63;96176.22;5024081;27;103440;-80
2024/04/01 04:19:38;;;;;;;6.78;1.50;;;;;;;10.38;76.47;96158.25;5021467;27;103132;-74
2024/04/01 04:22:04;;;;;;;6.25;1.30;;;;;;;10.45;76.24;96158.97;5022344;27;103772;-80
2024/04/01 04:24:36;;;;;;;13.18;1.70;;;;;;;10.29;76.78;96164.91;5024549;27;102804;-79
2024/04/01 04:27:02;;;;;;;5.43;1.45;;;;;;;10.29;76.66;96159.59;5021976;27;103273;-80
2024/04/01 04:29:27;;;;;;;7.20;1.73;;;;;;;10.34;76.26;96180.09;5024351;27;103064;-71
2024/04/01 04:31:55;;;;;;;8.65;1.85;;;;;;;10.36;76.60;96168.28;4993906;27;102653;-80
2024/04/01 04:34:22;;;;;;;7.38;1.50;;;;;;;10.33;76.37;96158.13;5017033;27;102626;-80
2024/04/01 04:36:48;;;;;;;6.00;1.40;;;;;;;10.45;75.78;96160.78;5022417;27;103375;-77
2024/04/01 04:39:24;;;;;;;8.05;1.42;;;;;;;10.02;77.73;96160.03;5022878;27;104143;-80
2024/04/01 04:41:54;;;;;;;8.95;1.45;;;;;;;10.06;77.44;96142.69;5005312;27;102856;-78
2024/04/01 04:44:19;;;;;;;5.25;1.52;;;;;;;10.11;77.36;96153.38;4997235;27;102701;-78
2024/04/01 04:46:45;;;;;;;7.95;1.70;;;;;;;10.13;77.29;96161.09;5022244;27;103191;-81
2024/04/01 04:49:13;;;;;;;8.45;1.70;;;;;;;10.10;76.92;96174.75;5020894;27;103037;-82
2024/04/01 04:51:39;;;;;;;5.22;2.00;;;;;;;10.14;76.91;96173.28;5019923;27;102828;-81
2024/04/01 04:54:07;;;;;;;7.85;2.53;;;;;;;10.20;76.99;96182.94;5021025;27;102683;-76
2024/04/01 04:56:33;;;;;;;6.22;1.95;;;;;;;10.20;77.11;96198.81;5021674;27;103231;-80
2024/04/01 04:59:02;;;;;;;5.97;1.42;;;;;;;10.17;76.62;96182.59;5021384;27;103333;-81
2024/04/01 05:01:28;;;;;;;4.38;1.48;;;;;;;10.27;76.26;96190.75;5018621;27;104335;-77
2024/04/01 05:03:56;;;;;;;5.15;1.80;;;;;;;10.19;76.47;96201.69;5019541;27;104074;-81
2024/04/01 05:06:22;;;;;;;7.32;1.73;;;;;;;10.19;76.28;96206.97;5016483;27;104299;-79
2024/04/01 05:08:47;;;;;;;6.03;1.70;;;;;;;10.12;76.49;96213.16;5023087;27;103253;-77
2024/04/01 05:11:13;;;;;;;6.80;1.75;;;;;;;10.18;76.75;96226.50;5021277;27;102947;-79
2024/04/01 05:13:41;;;;;;;9.15;1.63;;;;;;;9.99;77.07;96233.72;5021316;27;103004;-81
2024/04/01 05:16:07;;;;;;;4.57;1.90;;;;;;;9.98;77.06;96238.19;5022900;27;103211;-79
2024/04/01 05:18:34;;;;;;;7.68;2.30;;;;;;;9.96;77.38;96250.84;5024031;27;103142;-75
2024/04/01 05:21:00;;;;;;;5.00;2.35;;;;;;;9.88;77.46;96259.88;5022277;27;103315;-75
2024/04/01 05:23:26;;;;;;;9.15;3.10;;;;;;;9.94;77.26;96279.31;5000898;27;103012;-75
2024/04/01 05:25:52;;;;;;;7.65;3.00;;;;;;;9.88;77.32;96286.31;5021995;27;103301;-78
2024/04/01 05:28:21;;;;;;;4.13;2.35;;;;;;;9.85;77.30;96305.28;5013397;27;103558;-74
2024/04/01 05:30:52;;;;;;;9.57;2.92;;;;;;;9.81;78.00;96309.38;5029253;27;103207;-75
2024/04/01 05:33:19;;;;;;;7.57;2.72;;;;;;;9.86;77.83;96327.22;5011427;27;102900;-77
2024/04/01 05:35:45;;;;;;;9.65;2.83;;;;;;;9.99;77.80;96319.13;5027054;27;103145;-81
2024/04/01 05:38:16;;;;;;;5.90;2.60;;;;;;;9.87;77.90;96326.22;5026627;27;103749;-79
2024/04/01 05:40:44;;;;;;;5.35;2.65;;;;;;;9.78;78.87;96334.41;5025542;27;103274;-79
2024/04/01 05:43:10;;;;;;;7.97;2.65;;;;;;;9.85;79.20;96322.97;5026144;27;102746;-81
2024/04/01 05:45:38;;;;;;;6.35;2.83;;;;;;;9.66;79.59;96322.19;5010329;27;109770;-80
2024/04/01 05:48:04;;;;;;;7.15;3.10;;;;;;;9.61;79.96;96326.28;5030612;27;104243;-78
2024/04/01 05:50:32;;;;;;;6.85;2.78;;;;;;;9.72;80.18;96329.22;5023531;27;102818;-80
2024/04/01 05:52:58;;;;;;;5.93;2.38;;;;;;;9.79;79.57;96328.09;5025553;27;102797;-77
2024/04/01 05:55:23;;;;;;;5.90;3.20;;;;;;;9.77;80.16;96322.25;5011152;27;103055;-76
2024/04/01 05:57:51;;;;;;;7.25;2.97;;;;;;;9.58;80.95;96344.44;5024765;27;102657;-73
2024/04/01 06:00:17;;;;;;;6.93;3.20;;;;;;;9.73;81.12;96360.72;5028488;27;102889;-77
2024/04/01 06:02:47;;;;;;;5.90;2.63;;;;;;;9.85;80.51;96358.16;5028646;27;102687;-78
2024/04/01 06:05:14;;;;;;;7.93;2.70;;;;;;;9.64;81.40;96364.66;5027753;27;103314;-72
2024/04/01 06:07:47;;;;;;;4.20;2.22;;;;;;;9.66;81.33;96370.56;5026725;27;103491;-79
2024/04/01 06:10:12;;;;;;;7.15;2.75;;;;;;;9.69;81.34;96370.09;5023279;27;102881;-73
2024/04/01 06:12:38;;;;;;;10.15;2.42;;;;;;;9.67;80.85;96374.81;5028189;27;102686;-79
2024/04/01 06:15:04;;;;;;;5.97;2.78;;;;;;;9.60;81.37;96379.34;5013657;27;103207;-79
2024/04/01 06:17:32;;;;;;;4.45;2.20;;;;;;;9.65;81.33;96374.22;5022552;27;102857;-78
2024/04/01 06:19:58;;;;;;;5.63;2.22;;;;;;;9.44;81.87;96376.25;5021406;27;103920;-73
2024/04/01 06:22:23;;;;;;;4.13;1.98;;;;;;;9.66;81.79;96389.06;5026727;27;102596;-77
2024/04/01 06:24:50;;;;;;;5.45;2.03;;;;;;;9.82;81.30;96397.44;5010940;27;103322;-76
2024/04/01 06:27:18;;;;;;;4.38;2.10;;;;;;;9.87;80.95;96390.47;5024945;27;103316;-78
2024/04/01 06:29:44;;;;;;;3.67;1.60;;;;;;;9.89;80.63;96387.59;5005429;27;102688;-76
2024/04/01 06:32:15;;;;;;;4.20;1.90;;;;;;;9.86;80.98;96407.34;5032797;27;102986;-75
2024/04/01 06:34:43;;;;;;;3.70;1.70;;;;;;;9.77;81.21;96401.56;5029106;27;108115;-78
2024/04/01 06:37:11;;;;;;;2.50;1.67;;;;;;;9.74;82.18;96417.84;5028411;27;103280;-79
2024/04/01 06:39:36;;;;;;;2.00;1.50;;;;;;;9.92;81.56;96424.97;5028171;27;102732;-80
2024/04/01 06:42:02;;;;;;;2.85;1.40;;;;;;;9.96;81.66;96425.34;5010484;27;103619;-78
2024/04/01 06:44:28;;;;;;;4.03;1.88;;;;;;;9.87;81.53;96468.97;5025735;27;103385;-76
2024/04/01 06:46:56;;;;;;;3.10;1.63;;;;;;;9.86;81.72;96472.66;5030149;27;103162;-78
2024/04/01 06:49:24;;;;;;;3.92;1.80;;;;;;;9.61;82.34;96481.41;5027641;27;102750;-78
2024/04/01 06:51:52;;;;;;;4.93;1.60;;;;;;;9.68;82.92;96470.78;5029332;27;102802;-79
2024/04/01 06:54:17;;;;;;;3.47;1.65;;;;;;;9.68;82.32;96449.63;5027344;27;102746;-79
2024/04/01 06:56:43;;;;;;;3.83;1.33;;;;;;;9.74;82.14;96443.47;5010177;27;105908;-78
2024/04/01 06:59:10;;;;;;;4.43;1.35;;;;;;;9.72;81.26;96459.56;5011329;27;102921;-77
2024/04/01 07:01:38;;;;;;;1.40;1.02;;;;;;;9.80;81.17;96434.69;5011559;27;103407;-74
2024/04/01 07:04:03;;;;;;;1.88;1.23;;;;;;;9.90;80.92;96442.09;5011000;27;105263;-78
2024/04/01 07:06:31;;;;;;;3.55;1.27;;;;;;;9.82;81.07;96460.88;5024616;27;103033;-77
2024/04/01 07:08:59;;;;;;;2.72;1.25;;;;;;;9.78;82.01;96469.25;5023085;27;102705;-76
2024/04/01 07:11:25;;;;;;;2.58;1.00;;;;;;;9.86;82.23;96477.94;5023842;27;102635;-75
2024/04/01 07:13:51;;;;;;;1.50;0.90;;;;;;;9.75;82.32;96498.75;5020666;27;104084;-78
2024/04/01 07:16:16;;;;;;;3.88;1.10;;;;;;;9.57;83.34;96504.81;4990397;27;103438;-79
2024/04/01 07:18:42;;;;;;;2.92;0.90;;;;;;;9.51;83.42;96510.13;5021410;27;102986;-77
2024/04/01 07:21:08;;;;;;;2.42;0.75;;;;;;;9.56;83.04;96515.59;5021125;27;103194;-76
2024/04/01 07:23:35;;;;;;;1.95;0.90;;;;;;;9.61;82.73;96498.06;5019160;27;104947;-77
2024/04/01 07:26:01;;;;;;;3.38;1.00;;;;;;;9.49;82.74;96515.66;5025270;27;103198;-77
2024/04/01 07:28:32;;;;;;;3.03;0.50;;;;;;;9.49;83.41;96525.41;5024780;27;104052;-73
2024/04/01 07:31:07;;;;;;;1.08;0.57;;;;;;;9.56;83.31;96520.88;5024378;27;102843;-75
2024/04/01 07:33:37;;;;;;;3.00;0.82;;;;;;;9.37;82.96;96512.09;5006614;27;103099;-74
2024/04/01 07:36:03;;;;;;;0.90;0.50;;;;;;;9.56;82.18;96526.16;5004241;27;104808;-79
2024/04/01 07:38:29;;;;;;;0.90;0.40;;;;;;;9.50;81.97;96532.28;5019983;27;103784;-80
2024/04/01 07:40:55;;;;;;;1.23;0.40;;;;;;;9.53;81.61;96537.19;5010576;27;102899;-77
2024/04/01 07:43:20;;;;;;;0.68;0.30;;;;;;;9.38;81.17;96538.28;5006058;27;103177;-75
2024/04/01 07:45:50;;;;;;;0.32;0.32;;;;;;;9.49;81.19;96542.06;5027132;27;103033;-76
2024/04/01 07:48:21;;;;;;;0.57;0.30;;;;;;;9.54;80.94;96549.38;5007490;27;102596;-77
2024/04/01 07:50:49;;;;;;;0.52;0.28;;;;;;;9.55;81.27;96556.25;5018753;27;103971;-78
2024/04/01 07:53:14;;;;;;;2.05;0.35;;;;;;;9.53;81.52;96563.59;5022753;27;103194;-78
2024/04/01 07:55:41;;;;;;;0.98;0.40;;;;;;;9.42;81.77;96580.94;5011212;27;103120;-76
2024/04/01 07:58:11;;;;;;;0.82;0.30;;;;;;;9.44;82.31;96586.81;5021569;27;102799;-75
2024/04/01 08:00:37;;;;;;;0.55;0.20;;;;;;;9.52;82.56;96591.84;5007797;27;103672;-76
2024/04/01 08:03:03;;;;;;;0.63;0.25;;;;;;;9.41;81.92;96609.19;5005782;27;103531;-76
2024/04/01 08:05:29;;;;;;;0.50;0.20;;;;;;;9.51;81.54;96607.91;5017924;27;102937;-78
2024/04/01 08:07:54;;;;;;;0.70;0.30;;;;;;;9.57;81.06;96604.44;5018704;27;102665;-76
2024/04/01 08:10:20;;;;;;;3.22;0.40;;;;;;;9.56;80.39;96619.50;4984601;27;103003;-76
2024/04/01 08:12:45;;;;;;;0.35;0.20;;;;;;;9.56;81.28;96634.50;5021250;27;102785;-76
2024/04/01 08:15:13;;;;;;;0.60;0.57;;;;;;;9.60;81.29;96643.63;5003610;27;103410;-73
2024/04/01 08:17:39;;;;;;;0.55;0.32;;;;;;;9.64;81.33;96652.75;5001814;27;103258;-79
2024/04/01 08:20:05;;;;;;;0.38;0.38;;;;;;;9.74;80.94;96660.25;5022347;27;102852;-75
2024/04/01 08:22:33;;;;;;;0.45;0.30;;;;;;;9.74;80.93;96668.97;5002901;27;102698;-76
2024/04/01 08:24:59;;;;;;;0.30;0.20;;;;;;;9.72;80.88;96673.66;5020624;27;103218;-76
2024/04/01 08:27:25;;;;;;;1.10;0.60;;;;;;;9.84;80.72;96680.91;5019950;27;102726;-76
2024/04/01 08:29:54;;;;;;;2.05;0.65;;;;;;;9.61;80.96;96692.84;5022193;27;103870;-73
2024/04/01 08:32:24;;;;;;;1.13;0.50;;;;;;;9.75;81.30;96689.09;5006139;27;103724;-75
2024/04/01 08:34:49;;;;;;;0.75;0.43;;;;;;;9.85;80.22;96688.66;5023242;27;104080;-74
2024/04/01 08:37:20;;;;;;;1.38;0.47;;;;;;;9.84;80.90;96689.66;5024061;27;103962;-75
2024/04/01 08:39:46;;;;;;;1.15;0.30;;;;;;;9.96;80.08;96698.53;5025845;27;102657;-74
2024/04/01 08:42:18;;;;;;;1.20;0.60;;;;;;;10.09;79.78;96699.47;5025976;27;103662;-79
2024/04/01 08:44:47;;;;;;;1.13;0.70;;;;;;;10.10;79.43;96714.31;5026292;27;107607;-80
2024/04/01 08:47:15;;;;;;;1.42;0.40;;;;;;;9.87;80.42;96728.09;5003192;27;103461;-73
2024/04/01 08:49:57;;;;;;;1.15;0.40;;;;;;;10.06;80.58;96731.63;5022579;27;103074;-77
2024/04/01 08:52:25;;;;;;;0.50;0.50;;;;;;;9.96;80.16;96738.19;5024250;27;103698;-76
2024/04/01 08:54:52;;;;;;;1.55;0.50;;;;;;;9.81;79.20;96735.03;5038924;27;103272;-76
2024/04/01 08:57:17;;;;;;;0.40;0.40;;;;;;;10.10;80.06;96730.19;5011716;27;103198;-77
2024/04/01 08:59:47;;;;;;;0.73;0.45;;;;;;;10.25;78.71;96719.31;5029961;27;103752;-77
2024/04/01 09:02:13;;;;;;;1.55;0.60;;;;;;;9.93;78.58;96740.44;5028929;27;103246;-75
2024/04/01 09:04:39;;;;;;;0.30;0.30;;;;;;;9.68;78.96;96729.81;5027771;27;105035;-76
2024/04/01 09:07:13;;;;;;;4.28;0.40;;;;;;;9.75;79.30;96723.47;5020571;27;102870;-73
2024/04/01 09:09:39;;;;;;;0.80;0.40;;;;;;;9.57;78.45;96734.72;5008765;27;103145;-75
2024/04/01 09:12:07;;;;;;;2.58;0.40;;;;;;;9.79;79.17;96726.50;5024781;27;103254;-77
2024/04/01 09:14:32;;;;;;;0.20;0.20;;;;;;;9.83;78.79;96722.41;5025662;27;103064;-76
2024/04/01 09:17:01;;;;;;;2.78;0.40;;;;;;;10.01;78.47;96729.63;5010501;27;103485;-73
2024/04/01 09:19:30;;;;;;;1.05;0.50;;;;;;;10.20;78.16;96740.31;5014263;27;103578;-78
2024/04/01 09:22:01;;;;;;;0.50;0.50;;;;;;;10.25;79.06;96751.06;5023112;27;105401;-77
2024/04/01 09:24:32;;;;;;;0.30;0.25;;;;;;;10.36;78.70;96747.75;5023186;27;103864;-78
2024/04/01 09:26:58;;;;;;;1.27;0.57;;;;;;;10.40;77.65;96759.53;5014805;27;104042;-77
2024/04/01 09:29:24;;;;;;;1.23;0.32;;;;;;;10.35;76.92;96767.31;5016117;27;102741;-78
2024/04/01 09:31:52;;;;;;;0.30;0.30;;;;;;;10.20;76.41;96775.50;4989952;27;105796;-78
2024/04/01 09:34:18;;;;;;;0.60;0.47;;;;;;;9.97;76.76;96791.91;5026594;27;103212;-74
2024/04/01 09:36:44;;;;;;;2.50;0.38;;;;;;;10.28;76.88;96790.31;5032202;27;102765;-77
2024/04/01 09:39:12;;;;;;;0.88;0.30;;;;;;;10.11;73.51;96788.19;5036569;27;103693;-77
2024/04/01 09:41:40;;;;;;;0.40;0.30;;;;;;;10.48;75.27;96786.75;5028252;27;103999;-74
2024/04/01 09:44:07;;;;;;;2.28;0.32;;;;;;;10.71;72.81;96781.69;5046972;27;103950;-75
2024/04/01 09:46:33;;;;;;;0.47;0.20;;;;;;;10.78;71.75;96795.69;5038599;27;102850;-75
2024/04/01 09:48:59;;;;;;;0.52;0.20;;;;;;;10.70;70.88;96789.84;5015373;27;102761;-75
2024/04/01 09:51:27;;;;;;;0.10;0.10;;;;;;;10.63;71.20;96794.41;5005190;27;105406;-77
2024/04/01 09:53:52;;;;;;;0.10;0.10;;;;;;;10.66;70.95;96800.06;5027480;27;103323;-77
2024/04/01 09:56:42;;;;;;;0.20;0.20;;;;;;;10.61;71.32;96807.81;5035363;27;103064;-75
2024/04/01 09:59:20;;;;;;;0.28;0.20;;;;;;;10.55;72.40;96803.41;5007173;27;102696;-74
2024/04/01 10:01:57;;;;;;;1.15;0.30;;;;;;;10.50;71.28;96805.88;5017711;27;111183;-71
2024/04/01 10:04:56;;;;;;;0.63;0.32;;;;;;;10.55;71.48;96817.44;5027778;27;103378;-76
2024/04/01 10:07:52;;;;;;;0.30;0.20;;;;;;;10.73;70.53;96826.47;5023656;27;103482;-76
2024/04/01 10:10:56;;;;;;;1.17;0.20;;;;;;;10.65;69.68;96839.97;5027338;27;102675;-72
2024/04/01 10:13:54;;;;;;;0.20;0.20;;;;;;;10.88;69.17;96832.28;5021624;27;103304;-76
2024/04/01 10:16:38;;;;;;;0.75;0.30;;;;;;;11.08;68.47;96826.81;5012157;27;104609;-75
2024/04/01 10:19:37;;;;;;;2.60;0.40;;;;;;;11.27;67.37;96832.16;5025513;27;102662;-75
2024/04/01 10:22:13;;;;;;;0.77;0.40;;;;;;;11.35;65.38;96823.13;4988137;27;103221;-76
2024/04/01 10:25:12;;;;;;;0.10;0.10;;;;;;;11.03;64.96;96837.25;5031547;27;107762;-76
2024/04/01 10:28:02;;;;;;;0.30;0.10;;;;;;;10.94;66.01;96830.63;5015636;27;107539;-74
2024/04/01 10:30:37;;;;;;;0.17;0.10;;;;;;;10.68;64.35;96850.16;5023957;27;103966;-76
2024/04/01 10:33:41;;;;;;;0.20;0.20;;;;;;;10.54;64.68;96865.31;5016995;27;103819;-78
2024/04/01 10:36:21;;;;;;;1.08;0.20;;;;;;;10.39;64.57;96874.34;5006646;27;107792;-76
2024/04/01 10:39:09;;;;;;;0.10;0.10;;;;;;;10.40;64.70;96880.44;5022326;27;109928;-76
2024/04/01 10:42:12;;;;;;;0.10;0.10;;;;;;;10.41;64.39;96884.72;5022654;27;102991;-75
2024/04/01 10:44:57;;;;;;;0.10;0.10;;;;;;;10.47;64.63;96896.28;5010333;27;103147;-76
2024/04/01 10:47:32;;;;;;;1.85;0.30;;;;;;;10.22;64.83;96899.66;5023992;27;103278;-75
2024/04/01 10:50:16;;;;;;;0.20;0.13;;;;;;;10.12;64.08;96911.47;5007849;27;103257;-74
2024/04/01 10:52:55;;;;;;;1.05;0.43;;;;;;;10.43;64.75;96904.66;5027053;27;102989;-77
2024/04/01 10:55:26;;;;;;;0.32;0.22;;;;;;;10.54;64.08;96905.00;5019106;27;102673;-73
2024/04/01 10:57:58;;;;;;;3.38;0.60;;;;;;;10.62;63.91;96904.75;5027724;27;103922;-75
2024/04/01 11:00:43;;;;;;;0.17;0.10;;;;;;;10.82;62.47;96911.78;5033036;27;103515;-76
2024/04/01 11:03:12;;;;;;;;;;;;;;;10.62;63.24;96918.00;5024523;27;103219;-76
2024/04/01 11:06:05;;;;;;;3.85;1.15;;;;;;;10.60;62.60;96925.34;5032222;27;103003;-74
2024/04/01 11:08:58;;;;;;;0.30;0.30;;;;;;;10.71;62.86;96924.66;5020427;27;103396;-75
2024/04/01 11:11:35;;;;;;;0.50;0.50;;;;;;;10.94;62.92;96929.41;5025296;27;103504;-75
2024/04/01 11:14:02;;;;;;;0.93;0.45;;;;;;;10.86;61.90;96932.34;5024461;27;104373;-76
2024/04/01 11:16:32;;;;;;;0.47;0.30;;;;;;;11.02;62.23;96930.19;5018734;27;103496;-76
2024/04/01 11:19:33;;;;;;;0.20;0.20;;;;;;;11.00;62.08;96943.63;5008245;27;103459;-75
2024/04/01 11:22:03;;;;;;;0.20;0.20;;;;;;;11.10;61.49;96951.94;5023019;27;107543;-77
2024/04/01 11:24:43;;;;;;;0.28;0.20;;;;;;;10.98;61.49;96956.31;5022959;27;102831;-74
2024/04/01 11:27:26;;;;;;;0.10;0.10;;;;;;;10.85;61.09;96948.44;5002676;27;102864;-76
2024/04/01 11:30:13;;;;;;;0.98;0.20;;;;;;;10.82;62.02;96968.22;5022002;27;107564;-77
2024/04/01 11:32:45;;;;;;;0.20;0.20;;;;;;;10.98;62.19;96976.66;5029116;27;107800;-75
2024/04/01 11:35:35;;;;;;;0.20;0.20;;;;;;;10.81;62.54;96982.47;5027714;27;104114;-75
2024/04/01 11:38:27;;;;;;;0.30;0.17;;;;;;;10.64;63.49;96981.31;5022167;27;102822;-73